Time;durP1;ratioP1;P1;durP2;ratioP2;P2;SDS_P1;SDS_P2;PMS_P1;PMS_P2;Temp;Humidity;BMP_temperature;BMP_pressure;BME280_temperature;BME280_humidity;BME280_pressure;Samples;Min_cycle;Max_cycle;Signal;HPM_P1;HPM_P2
2022/09/19 00:01:45;;;;;;;1.33;0.50;;;;;;;12.67;69.54;98901.55;1786432;80;21909;-74
2022/09/19 00:04:19;;;;;;;0.80;0.50;;;;;;;12.84;68.54;98914.20;1787463;79;21274;-74
2022/09/19 00:06:46;;;;;;;0.83;0.47;;;;;;;12.85;67.94;98899.13;1785537;79;21273;-73
2022/09/19 00:09:17;;;;;;;0.40;0.40;;;;;;;12.80;67.31;98924.75;1788542;80;21180;-74
2022/09/19 00:11:46;;;;;;;0.90;0.60;;;;;;;12.74;67.47;98913.94;1787386;80;21960;-73
2022/09/19 00:14:17;;;;;;;0.80;0.40;;;;;;;12.73;67.34;98914.23;1785792;79;20995;-73
2022/09/19 00:16:45;;;;;;;0.57;0.33;;;;;;;12.68;67.01;98914.62;1764519;81;21287;-73
2022/09/19 00:19:16;;;;;;;0.83;0.40;;;;;;;12.72;67.08;98936.22;1736846;81;21183;-75
2022/09/19 00:21:46;;;;;;;0.60;0.30;;;;;;;12.63;66.96;98922.78;1735833;82;21193;-74
2022/09/19 00:27:05;;;;;;;0.67;0.40;;;;;;;12.64;66.89;98923.05;1763380;81;21107;-73
2022/09/19 00:29:35;;;;;;;0.70;0.40;;;;;;;12.62;66.85;98932.48;1761010;81;21225;-73
2022/09/19 00:32:07;;;;;;;0.77;0.40;;;;;;;12.63;66.88;98937.52;1748586;82;21277;-76
2022/09/19 00:34:32;;;;;;;0.50;0.40;;;;;;;12.61;66.94;98921.54;1762438;81;21322;-74
2022/09/19 00:36:59;;;;;;;1.30;0.40;;;;;;;12.60;66.94;98929.31;1766426;81;21187;-74
2022/09/19 00:39:26;;;;;;;3.17;0.50;;;;;;;12.60;67.09;98936.01;1766364;81;21751;-73
2022/09/19 00:41:52;;;;;;;0.50;0.40;;;;;;;12.61;67.16;98944.30;1765656;81;22195;-74
2022/09/19 00:44:27;;;;;;;0.53;0.50;;;;;;;12.63;67.22;98932.16;1763165;81;21799;-74
2022/09/19 00:47:12;;;;;;;0.80;0.40;;;;;;;12.65;67.40;98938.56;1751147;81;21439;-74
2022/09/19 00:49:42;;;;;;;1.17;0.50;;;;;;;12.67;67.49;98924.32;1726572;83;21266;-74
2022/09/19 00:52:21;;;;;;;0.90;0.70;;;;;;;12.64;67.78;98926.27;1749837;80;21916;-76
2022/09/19 00:54:47;;;;;;;1.27;0.70;;;;;;;12.64;68.02;98934.31;1788265;79;21148;-74
2022/09/19 00:57:15;;;;;;;1.27;0.70;;;;;;;12.64;68.26;98928.95;1788412;80;21185;-73
2022/09/19 00:59:46;;;;;;;1.13;0.60;;;;;;;12.64;68.44;98936.99;1787856;80;21378;-78
2022/09/19 01:02:14;;;;;;;1.37;0.80;;;;;;;12.64;68.59;98932.42;1787222;80;21312;-74
2022/09/19 01:04:41;;;;;;;2.03;0.80;;;;;;;12.70;68.63;98937.62;1786182;79;21057;-76
2022/09/19 01:07:53;;;;;;;1.13;0.73;;;;;;;12.69;68.80;98936.83;1786459;79;21838;-75
2022/09/19 01:10:54;;;;;;;1.50;0.90;;;;;;;12.73;68.88;98939.68;1756981;81;21289;-75
2022/09/19 01:13:30;;;;;;;1.53;0.90;;;;;;;12.72;69.09;98941.58;1755808;81;21207;-74
2022/09/19 01:16:03;;;;;;;1.23;0.80;;;;;;;12.75;69.22;98950.88;1730618;81;21299;-75
2022/09/19 01:18:46;;;;;;;2.30;1.00;;;;;;;12.77;69.31;98944.13;1751010;82;21181;-75
2022/09/19 01:21:39;;;;;;;1.77;1.10;;;;;;;12.80;69.51;98961.45;1756722;80;21283;-75
2022/09/19 01:24:19;;;;;;;1.57;1.00;;;;;;;12.84;69.48;98951.16;1755016;81;21640;-74
2022/09/19 01:27:01;;;;;;;2.33;1.20;;;;;;;12.89;69.53;98954.23;1755487;81;21348;-75
2022/09/19 01:29:52;;;;;;;2.30;1.20;;;;;;;12.93;69.44;98951.16;1745632;81;21674;-76
2022/09/19 01:32:24;;;;;;;2.60;1.30;;;;;;;13.01;69.33;98950.41;1758308;80;21682;-74
2022/09/19 01:34:55;;;;;;;2.30;1.20;;;;;;;13.05;69.16;98955.93;1751120;82;21815;-73
2022/09/19 01:37:28;;;;;;;1.97;1.30;;;;;;;13.07;69.00;98955.08;1755969;81;21010;-76
2022/09/19 01:39:57;;;;;;;1.90;1.30;;;;;;;13.13;68.83;98952.49;1756837;81;21299;-74
2022/09/19 01:42:23;;;;;;;1.77;1.23;;;;;;;13.13;68.55;98955.95;1727144;83;21212;-76
2022/09/19 01:44:53;;;;;;;2.33;1.33;;;;;;;13.16;68.50;98946.48;1753780;81;21279;-77
2022/09/19 01:47:39;;;;;;;2.80;1.40;;;;;;;13.18;68.27;98955.01;1756726;80;21213;-75
2022/09/19 01:50:23;;;;;;;3.07;1.37;;;;;;;13.24;68.28;98965.85;1787056;79;21244;-76
2022/09/19 01:53:30;;;;;;;2.37;1.50;;;;;;;13.29;68.15;98958.20;1788659;80;21267;-75
2022/09/19 01:56:12;;;;;;;3.80;1.60;;;;;;;13.30;68.03;98963.27;1775142;79;21197;-73
2022/09/19 01:58:55;;;;;;;4.80;1.40;;;;;;;13.31;67.86;98972.87;1788257;80;21299;-76
2022/09/19 02:01:35;;;;;;;2.70;1.90;;;;;;;13.35;67.88;98959.08;1754469;81;21912;-75
2022/09/19 02:04:25;;;;;;;1.95;1.47;;;;;;;13.35;67.64;98959.08;1774441;80;21075;-74
2022/09/19 02:07:25;;;;;;;3.23;1.80;;;;;;;13.40;67.64;98956.02;1749754;82;21008;-77
2022/09/19 02:10:00;;;;;;;2.47;1.60;;;;;;;13.45;67.57;98971.39;1736551;81;21379;-74
2022/09/19 02:12:31;;;;;;;3.87;1.90;;;;;;;13.45;67.48;98962.00;1755398;80;21246;-74
2022/09/19 02:15:00;;;;;;;3.10;1.57;;;;;;;13.47;67.43;98983.16;1762677;80;21412;-75
2022/09/19 02:17:33;;;;;;;2.90;1.63;;;;;;;13.51;67.44;98988.13;1763140;81;21329;-75
2022/09/19 02:20:09;;;;;;;2.52;1.80;;;;;;;13.51;67.35;98996.17;1762352;81;21788;-77
2022/09/19 02:22:49;;;;;;;3.77;2.10;;;;;;;13.53;67.27;98983.25;1755240;81;21053;-73
2022/09/19 02:25:21;;;;;;;3.47;1.60;;;;;;;13.54;67.39;99004.38;1785209;78;21875;-75
2022/09/19 02:27:59;;;;;;;3.00;2.00;;;;;;;13.59;67.22;99006.92;1785381;78;21245;-75
2022/09/19 02:30:26;;;;;;;3.20;1.97;;;;;;;13.59;66.93;99020.34;1786432;78;21562;-73
2022/09/19 02:32:53;;;;;;;3.17;1.77;;;;;;;13.62;66.71;99004.14;1784789;78;21265;-73
2022/09/19 02:35:24;;;;;;;2.93;1.87;;;;;;;13.60;66.69;99020.56;1740598;78;21203;-74
2022/09/19 02:37:55;;;;;;;3.15;1.70;;;;;;;13.63;66.44;99037.15;1783493;78;21114;-73
2022/09/19 02:40:35;;;;;;;4.67;1.90;;;;;;;13.60;66.26;99042.58;1787312;78;21147;-75
2022/09/19 02:43:36;;;;;;;2.47;1.60;;;;;;;13.60;66.35;99034.53;1785068;78;21049;-75
2022/09/19 02:46:11;;;;;;;3.25;1.87;;;;;;;13.58;66.27;99032.70;1780995;78;21141;-73
2022/09/19 02:48:47;;;;;;;3.30;1.90;;;;;;;13.61;66.40;99038.79;1785002;78;21031;-76
2022/09/19 02:51:27;;;;;;;2.70;1.77;;;;;;;13.55;66.57;99040.82;1783906;78;21084;-74
2022/09/19 02:54:02;;;;;;;3.27;1.87;;;;;;;13.56;66.74;99042.42;1785777;78;21257;-75
2022/09/19 02:56:33;;;;;;;2.43;1.80;;;;;;;13.54;66.84;99053.22;1784914;78;21296;-74
2022/09/19 02:59:06;;;;;;;3.17;1.72;;;;;;;13.55;66.86;99060.16;1780672;78;21773;-73
2022/09/19 03:01:35;;;;;;;4.17;1.90;;;;;;;13.53;66.97;99061.04;1783088;78;21062;-72
2022/09/19 03:04:18;;;;;;;5.27;2.07;;;;;;;13.52;67.12;99070.98;1784244;78;21247;-75
2022/09/19 03:07:06;;;;;;;2.47;1.77;;;;;;;13.46;67.24;99072.75;1759899;81;21486;-73
2022/09/19 03:09:33;;;;;;;3.23;2.00;;;;;;;13.48;67.36;99073.24;1762003;81;21695;-72
2022/09/19 03:12:11;;;;;;;3.20;2.10;;;;;;;13.50;67.12;99077.75;1752307;81;21774;-74
2022/09/19 03:14:40;;;;;;;3.83;2.30;;;;;;;13.50;66.60;99060.32;1767981;80;21333;-72
2022/09/19 03:17:07;;;;;;;3.10;1.90;;;;;;;13.50;66.50;99091.17;1763670;81;21303;-73
2022/09/19 03:19:36;;;;;;;3.93;2.10;;;;;;;13.51;66.55;99088.16;1764201;81;21844;-73
2022/09/19 03:22:03;;;;;;;3.03;2.03;;;;;;;13.49;66.57;99102.45;1764138;81;21326;-72
2022/09/19 03:24:31;;;;;;;6.53;2.20;;;;;;;13.49;66.57;99098.95;1751579;81;21273;-74
2022/09/19 03:26:58;;;;;;;3.37;2.10;;;;;;;13.50;66.47;99092.51;1778432;80;21728;-72
2022/09/19 03:29:25;;;;;;;3.50;2.10;;;;;;;13.47;66.29;99114.03;1755775;81;21889;-73
2022/09/19 03:31:54;;;;;;;3.97;2.23;;;;;;;13.45;66.24;99112.20;1755964;81;22167;-72
2022/09/19 03:34:21;;;;;;;4.77;2.40;;;;;;;13.45;66.16;99113.55;1754774;81;21806;-73
2022/09/19 03:36:49;;;;;;;3.43;1.90;;;;;;;13.47;66.22;99113.25;1784347;78;21364;-73
2022/09/19 03:39:17;;;;;;;5.07;2.40;;;;;;;13.49;66.27;99123.09;1785064;78;21156;-75
2022/09/19 03:41:44;;;;;;;4.77;2.43;;;;;;;13.50;66.27;99119.33;1785216;78;21333;-73
2022/09/19 03:44:12;;;;;;;3.57;2.40;;;;;;;13.48;66.19;99128.23;1787964;80;21126;-73
2022/09/19 03:46:43;;;;;;;3.07;2.00;;;;;;;13.45;66.21;99143.05;1786492;80;21130;-72
2022/09/19 03:49:10;;;;;;;4.60;2.23;;;;;;;13.45;66.30;99147.07;1786384;80;21134;-74
2022/09/19 03:51:37;;;;;;;5.00;2.40;;;;;;;13.45;66.25;99136.89;1787943;80;21171;-73
2022/09/19 03:54:04;;;;;;;4.37;2.47;;;;;;;13.46;66.01;99147.86;1788220;80;21654;-74
2022/09/19 03:56:34;;;;;;;4.33;2.40;;;;;;;13.45;65.94;99142.26;1786723;80;21281;-76
2022/09/19 03:59:03;;;;;;;4.53;2.40;;;;;;;13.47;65.89;99154.82;1788134;80;21217;-74
2022/09/19 04:01:29;;;;;;;3.97;2.40;;;;;;;13.46;65.87;99162.08;1788029;80;21825;-76
2022/09/19 04:03:56;;;;;;;3.90;2.60;;;;;;;13.48;65.73;99160.42;1787707;78;21419;-72
2022/09/19 04:06:23;;;;;;;4.67;2.67;;;;;;;13.47;65.54;99164.20;1785727;78;21301;-75
2022/09/19 04:08:50;;;;;;;4.17;2.37;;;;;;;13.51;65.33;99171.31;1786338;78;21685;-73
2022/09/19 04:11:18;;;;;;;3.03;2.20;;;;;;;13.52;65.21;99178.28;1782807;78;21618;-73
2022/09/19 04:13:48;;;;;;;3.73;2.20;;;;;;;13.56;65.07;99186.50;1788254;80;21351;-74
2022/09/19 04:16:17;;;;;;;4.17;2.43;;;;;;;13.55;65.01;99184.34;1781459;78;21046;-76
2022/09/19 04:18:49;;;;;;;3.70;2.33;;;;;;;13.58;65.00;99190.98;1784903;78;21374;-75
2022/09/19 04:21:17;;;;;;;4.00;2.70;;;;;;;13.59;64.99;99211.37;1721891;82;21525;-70
2022/09/19 04:23:47;;;;;;;4.53;2.60;;;;;;;13.58;64.76;99203.05;1747251;81;21253;-71
2022/09/19 04:26:21;;;;;;;3.65;2.33;;;;;;;13.55;64.72;99197.75;1744409;81;22223;-72
2022/09/19 04:28:48;;;;;;;3.77;2.50;;;;;;;13.60;64.77;99208.36;1740924;81;21082;-75
2022/09/19 04:31:16;;;;;;;3.30;2.43;;;;;;;13.60;64.51;99208.92;1762828;81;21356;-73
2022/09/19 04:33:44;;;;;;;4.47;2.60;;;;;;;13.60;64.66;99215.63;1760893;81;21252;-75
2022/09/19 04:36:13;;;;;;;4.30;2.70;;;;;;;13.61;64.72;99218.53;1765944;81;21250;-72
2022/09/19 04:38:42;;;;;;;4.20;2.47;;;;;;;13.61;64.50;99229.27;1763986;81;21299;-72
2022/09/19 04:41:10;;;;;;;3.77;2.57;;;;;;;13.66;64.38;99225.13;1760242;81;21208;-74
2022/09/19 04:43:38;;;;;;;4.80;2.80;;;;;;;13.72;64.35;99237.30;1762321;81;21044;-74
2022/09/19 04:46:09;;;;;;;3.60;2.00;;;;;;;13.70;64.22;99240.84;1764310;81;21243;-72
2022/09/19 04:48:40;;;;;;;3.45;2.30;;;;;;;13.73;64.22;99232.17;1763299;81;21039;-73
2022/09/19 04:51:07;;;;;;;3.73;2.50;;;;;;;13.72;63.94;99229.25;1762115;81;21003;-74
2022/09/19 04:53:37;;;;;;;3.57;2.33;;;;;;;13.75;63.90;99239.34;1761660;81;21265;-76
2022/09/19 04:56:03;;;;;;;4.03;2.27;;;;;;;13.78;63.89;99245.43;1762413;81;21305;-73
2022/09/19 04:58:32;;;;;;;3.60;2.37;;;;;;;13.79;63.90;99254.30;1763511;81;22135;-74
2022/09/19 05:01:00;;;;;;;4.67;2.60;;;;;;;13.80;63.96;99253.97;1754084;81;21258;-75
2022/09/19 05:03:30;;;;;;;4.20;2.93;;;;;;;13.80;63.78;99255.31;1746633;81;21206;-72
2022/09/19 05:05:59;;;;;;;4.63;2.70;;;;;;;13.80;63.67;99255.31;1753145;80;21241;-71
2022/09/19 05:08:30;;;;;;;4.73;2.80;;;;;;;13.84;63.60;99264.88;1757033;81;21799;-74
2022/09/19 05:11:04;;;;;;;3.90;2.77;;;;;;;13.80;63.63;99271.42;1755310;81;21851;-71
2022/09/19 05:13:34;;;;;;;4.70;2.40;;;;;;;13.76;63.55;99282.54;1751635;80;21371;-76
2022/09/19 05:16:01;;;;;;;4.77;2.80;;;;;;;13.79;63.76;99277.11;1785730;78;21370;-76
2022/09/19 05:18:37;;;;;;;3.83;2.70;;;;;;;13.79;63.73;99279.80;1757248;81;21380;-74
2022/09/19 05:21:03;;;;;;;5.07;2.80;;;;;;;13.79;63.60;99283.27;1755011;81;21313;-75
2022/09/19 05:23:32;;;;;;;;;;;;;;;13.80;63.63;99289.42;1753771;80;21873;-72
2022/09/19 05:26:04;;;;;;;6.00;2.73;;;;;;;13.84;63.59;99287.14;1752830;80;20235;-75
2022/09/19 05:28:31;;;;;;;5.40;3.00;;;;;;;13.88;63.49;99298.60;1719106;83;21690;-77
2022/09/19 05:30:58;;;;;;;4.13;2.63;;;;;;;13.95;63.58;99315.05;1738852;82;21176;-74
2022/09/19 05:33:26;;;;;;;3.57;2.50;;;;;;;13.97;63.22;99314.98;1760075;81;21263;-75
2022/09/19 05:35:56;;;;;;;5.03;3.03;;;;;;;14.01;63.19;99319.18;1765365;81;22004;-74
2022/09/19 05:38:24;;;;;;;4.80;2.90;;;;;;;14.07;63.06;99330.03;1758843;81;21168;-75
2022/09/19 05:41:01;;;;;;;4.53;2.90;;;;;;;14.10;62.95;99326.73;1765062;81;21204;-73
2022/09/19 05:43:48;;;;;;;4.53;2.80;;;;;;;14.17;62.70;99341.84;1670447;84;21469;-75
2022/09/19 05:46:15;;;;;;;3.30;2.60;;;;;;;14.18;62.53;99334.04;1701057;83;21318;-74
2022/09/19 05:48:43;;;;;;;4.70;2.70;;;;;;;14.22;62.67;99334.99;1703534;81;21311;-71
2022/09/19 05:51:10;;;;;;;4.53;3.03;;;;;;;14.28;62.43;99336.97;1775659;80;21336;-75
2022/09/19 05:53:52;;;;;;;4.90;2.70;;;;;;;14.31;62.12;99357.31;1755663;81;21431;-75
2022/09/19 05:56:26;;;;;;;4.33;2.73;;;;;;;14.31;62.00;99345.22;1755459;80;21496;-73
2022/09/19 05:59:04;;;;;;;4.13;3.03;;;;;;;14.31;62.23;99367.23;1771725;80;21428;-73
2022/09/19 06:01:32;;;;;;;4.50;2.90;;;;;;;14.28;62.24;99353.08;1786387;78;21373;-76
2022/09/19 06:04:01;;;;;;;4.60;3.53;;;;;;;14.22;62.42;99369.13;1756122;81;21354;-77
2022/09/19 06:06:29;;;;;;;5.90;3.20;;;;;;;14.21;62.60;99371.55;1751521;81;21405;-75
2022/09/19 06:08:57;;;;;;;4.60;3.47;;;;;;;14.14;62.91;99367.17;1781518;78;21322;-74
2022/09/19 06:11:26;;;;;;;4.60;3.53;;;;;;;14.10;63.10;99381.77;1785130;78;21302;-76
2022/09/19 06:16:41;;;;;;;4.37;3.40;;;;;;;13.97;63.39;99416.20;1785521;78;21438;-76
2022/09/19 06:19:19;;;;;;;5.73;3.90;;;;;;;13.98;63.63;99398.44;1765265;81;21395;-74
2022/09/19 06:21:48;;;;;;;4.30;3.20;;;;;;;14.04;63.94;99405.82;1765176;81;21805;-73
2022/09/19 06:24:16;;;;;;;5.27;3.73;;;;;;;14.17;63.66;99431.80;1762531;81;21392;-74
2022/09/19 06:26:43;;;;;;;6.53;3.97;;;;;;;14.13;63.34;99418.75;1762824;81;21729;-74
2022/09/19 06:29:09;;;;;;;6.13;3.73;;;;;;;13.97;63.94;99429.63;1732640;81;21604;-75
2022/09/19 06:31:39;;;;;;;4.40;3.40;;;;;;;13.93;64.26;99427.33;1758445;81;21354;-76
2022/09/19 06:34:12;;;;;;;4.20;3.30;;;;;;;13.97;64.39;99426.95;1755782;81;21207;-75
2022/09/19 06:36:44;;;;;;;6.67;3.67;;;;;;;14.03;64.28;99427.06;1733266;81;21386;-75
2022/09/19 06:39:09;;;;;;;3.80;3.30;;;;;;;14.03;63.96;99427.06;1762524;81;21885;-76
2022/09/19 06:41:38;;;;;;;4.53;3.00;;;;;;;14.10;63.88;99448.90;1756041;81;21242;-75
2022/09/19 06:44:23;;;;;;;4.60;3.20;;;;;;;14.26;63.29;99461.39;1748931;81;21245;-75
2022/09/19 06:47:08;;;;;;;4.50;3.10;;;;;;;14.37;62.65;99457.89;1757183;81;21470;-76
2022/09/19 06:49:48;;;;;;;4.87;3.13;;;;;;;14.37;62.65;99457.89;1755886;80;21396;-77
2022/09/19 06:52:17;;;;;;;4.40;3.00;;;;;;;14.46;62.35;99465.44;1785055;78;21899;-74
2022/09/19 06:54:44;;;;;;;3.70;2.63;;;;;;;14.57;61.92;99462.74;1753787;81;21463;-75
2022/09/19 06:57:11;;;;;;;5.00;3.17;;;;;;;14.63;61.48;99450.76;1753486;80;21443;-75
2022/09/19 06:59:38;;;;;;;5.47;3.07;;;;;;;14.74;61.50;99468.20;1749873;80;21883;-74
2022/09/19 07:02:05;;;;;;;4.17;2.40;;;;;;;14.96;60.63;99468.65;1752403;80;21373;-76
2022/09/19 07:04:34;;;;;;;4.03;2.77;;;;;;;14.96;60.63;99468.65;1746917;80;21448;-74
2022/09/19 07:07:15;;;;;;;3.87;2.20;;;;;;;15.08;60.00;99442.51;1757157;80;21461;-75
2022/09/19 07:09:44;;;;;;;3.00;2.10;;;;;;;15.37;58.84;99490.91;1755975;81;21676;-75
2022/09/19 07:12:12;;;;;;;5.00;2.30;;;;;;;15.37;58.84;99490.91;1753606;81;21543;-73
2022/09/19 07:14:41;;;;;;;3.03;2.00;;;;;;;15.53;58.46;99479.92;1753200;80;21782;-73
2022/09/19 07:17:15;;;;;;;3.57;2.00;;;;;;;15.59;56.97;99480.53;1760118;81;21607;-74
2022/09/19 07:19:39;;;;;;;3.13;1.97;;;;;;;15.61;57.44;99487.19;1761610;81;21724;-76
2022/09/19 07:22:24;;;;;;;2.43;1.70;;;;;;;15.65;58.00;99488.69;1754776;80;21649;-77
2022/09/19 07:24:54;;;;;;;3.67;2.03;;;;;;;15.80;57.65;99484.78;1746188;80;22241;-77
2022/09/19 07:27:26;;;;;;;2.97;1.77;;;;;;;15.96;57.57;99484.53;1754314;81;22605;-74
2022/09/19 07:29:53;;;;;;;3.30;2.07;;;;;;;16.12;56.29;99491.53;1750835;80;21723;-74
2022/09/19 07:32:20;;;;;;;3.47;1.80;;;;;;;16.11;55.70;99504.77;1756052;81;21804;-76
2022/09/19 07:34:47;;;;;;;2.57;1.80;;;;;;;16.11;55.70;99504.77;1753787;80;21541;-75
2022/09/19 07:37:14;;;;;;;3.17;1.80;;;;;;;16.08;55.50;99504.06;1773577;80;21699;-72
2022/09/19 07:39:42;;;;;;;3.07;1.80;;;;;;;16.08;55.41;99496.77;1756157;81;21720;-76
2022/09/19 07:42:14;;;;;;;;;;;;;;;16.03;55.24;99509.06;1746722;80;21569;-77
2022/09/19 07:44:57;;;;;;;5.00;1.83;;;;;;;15.91;54.81;99502.18;1725355;81;20145;-74
2022/09/19 07:47:32;;;;;;;2.87;1.67;;;;;;;15.70;55.24;99524.92;1745231;81;21718;-76
2022/09/19 07:50:18;;;;;;;2.47;1.80;;;;;;;15.55;55.59;99531.52;1759129;81;22167;-74
2022/09/19 07:53:04;;;;;;;3.20;1.73;;;;;;;15.38;55.97;99552.46;1754599;81;21696;-75
2022/09/19 07:55:33;;;;;;;3.23;1.70;;;;;;;15.35;56.35;99542.88;1790020;80;22201;-75
2022/09/19 07:58:00;;;;;;;4.10;1.90;;;;;;;15.32;56.63;99540.26;1790533;80;21744;-76
2022/09/19 08:00:45;;;;;;;2.53;1.70;;;;;;;15.34;56.97;99548.03;1758215;81;22237;-74
2022/09/19 08:03:15;;;;;;;3.37;1.90;;;;;;;15.38;57.20;99552.46;1753110;80;21660;-75
2022/09/19 08:05:47;;;;;;;3.27;2.00;;;;;;;15.31;56.29;99546.75;1789362;78;21699;-74
2022/09/19 08:08:17;;;;;;;2.57;1.90;;;;;;;15.32;56.63;99560.44;1756164;81;21696;-73
2022/09/19 08:10:44;;;;;;;3.63;1.70;;;;;;;15.25;56.79;99566.27;1796185;80;22143;-75
2022/09/19 08:13:13;;;;;;;3.33;1.93;;;;;;;15.25;56.89;99561.45;1747435;81;21722;-73
2022/09/19 08:15:42;;;;;;;3.03;1.93;;;;;;;15.25;56.82;99572.20;1759437;81;21716;-75
2022/09/19 08:18:16;;;;;;;3.77;2.00;;;;;;;15.22;56.60;99570.92;1738993;81;21444;-74
2022/09/19 08:20:42;;;;;;;3.80;2.20;;;;;;;15.23;56.66;99579.26;1765798;81;21529;-74
2022/09/19 08:23:14;;;;;;;3.20;2.07;;;;;;;15.25;56.78;99577.03;1764882;81;22468;-74
2022/09/19 08:25:46;;;;;;;4.93;2.13;;;;;;;15.28;56.93;99579.66;1764728;81;21673;-77
2022/09/19 08:28:20;;;;;;;3.87;2.30;;;;;;;15.37;56.78;99572.97;1766653;81;21681;-76
2022/09/19 08:30:45;;;;;;;3.57;2.20;;;;;;;15.52;56.53;99576.55;1756214;81;21707;-74
2022/09/19 08:33:13;;;;;;;4.20;2.50;;;;;;;15.59;55.33;99581.47;1758957;80;21842;-75
2022/09/19 08:35:41;;;;;;;3.90;2.20;;;;;;;15.62;54.97;99577.59;1753788;80;21776;-78
2022/09/19 08:38:12;;;;;;;3.87;2.50;;;;;;;15.67;55.17;99582.08;1729743;80;21725;-73
2022/09/19 08:41:02;;;;;;;3.87;2.40;;;;;;;15.78;55.69;99589.30;1746403;80;21635;-75
2022/09/19 08:43:54;;;;;;;3.90;2.70;;;;;;;15.92;55.11;99568.38;1765100;81;21685;-75
2022/09/19 08:46:47;;;;;;;3.40;2.20;;;;;;;16.04;54.77;99592.01;1759956;81;21917;-75
2022/09/19 08:49:27;;;;;;;3.60;2.43;;;;;;;16.08;53.87;99587.56;1736186;81;21798;-74
2022/09/19 08:52:15;;;;;;;3.80;2.40;;;;;;;16.07;53.35;99592.16;1762900;81;21681;-76
2022/09/19 08:54:46;;;;;;;3.83;2.30;;;;;;;16.07;53.40;99590.03;1753084;80;21652;-76
2022/09/19 08:57:19;;;;;;;4.93;2.60;;;;;;;16.04;53.16;99574.50;1771974;80;21755;-77
2022/09/19 08:59:46;;;;;;;4.23;2.60;;;;;;;16.08;53.63;99592.39;1744941;81;22015;-73
2022/09/19 09:02:19;;;;;;;5.83;2.53;;;;;;;16.11;53.19;99594.45;1750544;81;21731;-73
2022/09/19 09:04:50;;;;;;;3.60;2.37;;;;;;;16.14;52.83;99598.42;1730584;82;20971;-74
2022/09/19 09:07:23;;;;;;;4.93;2.53;;;;;;;16.15;53.00;99605.39;1756017;81;21094;-73
2022/09/19 09:10:09;;;;;;;3.17;2.43;;;;;;;16.19;52.80;99613.09;1754835;80;21833;-74
2022/09/19 09:13:09;;;;;;;3.80;2.53;;;;;;;16.19;52.80;99613.09;1757045;81;21543;-75
2022/09/19 09:15:58;;;;;;;4.30;2.70;;;;;;;16.53;53.14;99614.17;1744697;80;21091;-74
2022/09/19 09:18:56;;;;;;;5.73;2.70;;;;;;;16.53;53.14;99614.17;1779051;80;20948;-75
2022/09/19 09:21:48;;;;;;;4.30;2.60;;;;;;;16.73;51.45;99624.28;1787276;78;21471;-76
2022/09/19 09:24:22;;;;;;;4.73;2.80;;;;;;;17.01;51.51;99610.42;1778615;80;20987;-76
2022/09/19 09:26:56;;;;;;;4.83;2.73;;;;;;;17.39;50.42;99616.39;1789763;78;22107;-72
2022/09/19 09:29:28;;;;;;;5.13;2.80;;;;;;;17.59;49.73;99624.53;1785332;78;20976;-75
2022/09/19 09:32:15;;;;;;;3.80;2.60;;;;;;;17.64;48.91;99624.13;1762113;81;21058;-72
2022/09/19 09:34:56;;;;;;;4.90;2.92;;;;;;;17.63;48.75;99630.63;1765828;81;20963;-75
2022/09/19 09:37:40;;;;;;;5.27;2.47;;;;;;;17.57;48.14;99635.42;1760651;81;21073;-76
2022/09/19 09:41:44;;;;;;;4.33;2.47;;;;;;;17.50;48.66;99629.18;1764626;81;21837;-77
2022/09/19 09:42:59;;;;;;;4.07;2.50;;;;;;;17.45;48.28;99621.84;1761949;81;21039;-75
2022/09/19 09:45:44;;;;;;;5.57;2.53;;;;;;;17.30;48.53;99644.20;1766479;81;21113;-74
2022/09/19 09:48:34;;;;;;;4.73;2.33;;;;;;;17.32;47.78;99634.45;1766336;81;21034;-74
2022/09/19 09:51:19;;;;;;;4.03;2.47;;;;;;;17.40;48.36;99644.96;1766025;81;20943;-74
2022/09/19 09:57:40;;;;;;;5.47;2.37;;;;;;;17.48;47.73;99640.88;1739554;81;21098;-75
2022/09/19 10:05:58;;;;;;;5.10;3.00;;;;;;;17.67;47.89;99650.45;1748505;81;21062;-76
2022/09/19 10:08:28;;;;;;;4.20;2.42;;;;;;;17.72;47.93;99655.12;1787050;78;21761;-76
2022/09/19 10:11:04;;;;;;;4.10;2.40;;;;;;;17.71;47.55;99654.11;1762817;81;20940;-76
2022/09/19 10:13:39;;;;;;;4.70;2.23;;;;;;;17.68;47.15;99670.97;1756509;81;21189;-73
2022/09/19 10:16:05;;;;;;;4.23;2.10;;;;;;;17.64;47.13;99668.69;1774365;80;21078;-73
2022/09/19 10:18:51;;;;;;;3.90;2.30;;;;;;;17.57;45.93;99659.72;1755781;81;21102;-74
2022/09/19 10:21:18;;;;;;;4.43;1.97;;;;;;;17.59;46.23;99657.50;1754732;80;21416;-74
2022/09/19 10:23:48;;;;;;;4.37;1.97;;;;;;;17.70;45.87;99693.02;1786138;80;21023;-77
2022/09/19 10:26:22;;;;;;;3.37;2.00;;;;;;;17.78;45.69;99669.27;1720941;83;21560;-76
2022/09/19 10:28:56;;;;;;;4.40;2.00;;;;;;;17.82;45.21;99670.20;1741536;81;21027;-76
2022/09/19 10:31:34;;;;;;;3.63;2.00;;;;;;;18.00;45.05;99678.44;1778257;78;21055;-73
2022/09/19 10:34:09;;;;;;;3.40;1.80;;;;;;;18.23;44.82;99672.72;1759114;81;21136;-75
2022/09/19 10:36:46;;;;;;;7.23;2.27;;;;;;;18.36;43.87;99674.38;1760324;81;21075;-76
2022/09/19 10:39:14;;;;;;;4.50;2.00;;;;;;;18.36;42.91;99683.83;1761334;81;21054;-77
2022/09/19 10:41:42;;;;;;;3.93;2.37;;;;;;;18.42;43.85;99690.59;1761864;81;20975;-76
2022/09/19 10:44:28;;;;;;;4.07;2.10;;;;;;;18.42;43.74;99682.48;1762756;81;20959;-74
2022/09/19 10:46:58;;;;;;;4.53;2.10;;;;;;;18.45;43.79;99685.88;1757626;80;21655;-77
2022/09/19 10:49:37;;;;;;;4.80;2.07;;;;;;;18.51;43.13;99690.53;1752905;81;21023;-76
2022/09/19 10:52:06;;;;;;;3.10;2.00;;;;;;;18.82;43.11;99694.74;1752906;81;21561;-75
2022/09/19 10:54:41;;;;;;;4.00;1.93;;;;;;;19.00;42.29;99684.55;1783968;78;21521;-74
2022/09/19 10:57:44;;;;;;;3.73;1.77;;;;;;;19.04;41.99;99693.58;1756990;81;20999;-73
2022/09/19 11:00:31;;;;;;;3.40;1.80;;;;;;;19.06;42.18;99702.16;1758780;78;21062;-75
2022/09/19 11:03:23;;;;;;;4.53;1.83;;;;;;;19.03;41.71;99700.12;1757224;81;20943;-74
2022/09/19 11:06:16;;;;;;;4.23;1.80;;;;;;;19.07;40.71;99702.38;1781556;78;21522;-75
2022/09/19 11:08:48;;;;;;;4.17;2.00;;;;;;;19.17;41.70;99700.59;1782013;78;22262;-74
2022/09/19 11:11:40;;;;;;;5.77;2.00;;;;;;;19.01;41.40;99716.68;1785527;78;21004;-76
2022/09/19 11:14:19;;;;;;;3.65;1.92;;;;;;;18.89;42.53;99724.21;1761521;81;21891;-78
2022/09/19 11:17:12;;;;;;;3.10;1.73;;;;;;;18.91;42.36;99711.69;1760328;81;20939;-74
2022/09/19 11:20:25;;;;;;;4.63;1.87;;;;;;;19.02;40.85;99729.64;1732268;81;21143;-75
2022/09/19 11:23:40;;;;;;;6.50;1.77;;;;;;;18.98;40.50;99724.90;1761866;81;22402;-74
2022/09/19 11:26:28;;;;;;;3.25;1.77;;;;;;;18.78;41.54;99731.14;1761369;81;21003;-74
2022/09/19 11:29:12;;;;;;;4.67;2.13;;;;;;;18.63;41.35;99742.55;1761333;81;21601;-76
2022/09/19 11:31:47;;;;;;;5.63;1.93;;;;;;;18.44;42.14;99755.96;1759584;81;20999;-74
2022/09/19 11:34:37;;;;;;;3.83;1.73;;;;;;;18.34;42.37;99751.52;1766101;81;20976;-77
2022/09/19 11:37:49;;;;;;;4.97;1.90;;;;;;;18.26;42.84;99756.65;1743619;81;21498;-75
2022/09/19 11:40:37;;;;;;;2.77;1.60;;;;;;;18.27;43.27;99751.47;1765568;81;21011;-75
2022/09/19 11:43:22;;;;;;;4.50;1.60;;;;;;;18.34;43.04;99756.92;1766359;81;21626;-74
2022/09/19 11:46:15;;;;;;;2.57;1.33;;;;;;;18.35;42.61;99749.81;1761779;81;21038;-76
2022/09/19 11:49:13;;;;;;;3.87;1.62;;;;;;;18.28;41.95;99765.20;1753610;80;21058;-74
2022/09/19 11:52:01;;;;;;;3.33;1.50;;;;;;;18.20;42.35;99766.06;1775628;80;21027;-77
2022/09/19 11:54:44;;;;;;;3.23;1.50;;;;;;;18.08;42.41;99769.23;1746183;81;21020;-76
2022/09/19 11:57:37;;;;;;;3.52;1.50;;;;;;;18.04;43.12;99750.97;1727395;80;21323;-75
2022/09/19 12:00:15;;;;;;;3.27;1.30;;;;;;;18.02;42.57;99758.59;1776608;80;21502;-77
2022/09/19 12:03:16;;;;;;;3.33;1.30;;;;;;;17.96;42.82;99761.24;1756249;81;21114;-74
2022/09/19 12:06:12;;;;;;;5.20;1.30;;;;;;;17.96;42.96;99755.84;1750882;81;21120;-74
2022/09/19 12:09:07;;;;;;;3.13;1.20;;;;;;;17.93;41.97;99755.17;1786131;78;21580;-77
2022/09/19 12:11:46;;;;;;;3.53;1.23;;;;;;;17.90;41.86;99741.48;1762264;81;21355;-76
2022/09/19 12:14:29;;;;;;;3.40;1.20;;;;;;;17.91;42.19;99761.45;1762110;81;21062;-74
2022/09/19 12:17:00;;;;;;;5.70;1.60;;;;;;;18.00;41.91;99756.01;1756921;81;21003;-75
2022/09/19 12:19:35;;;;;;;4.55;1.40;;;;;;;18.07;42.21;99764.95;1780902;80;21642;-77
2022/09/19 12:22:09;;;;;;;4.50;1.17;;;;;;;18.14;42.14;99761.17;1753828;80;21079;-74
2022/09/19 12:24:53;;;;;;;2.23;1.10;;;;;;;18.23;41.73;99772.73;1755753;81;21415;-74
2022/09/19 12:27:45;;;;;;;4.90;1.07;;;;;;;18.30;41.45;99768.16;1788485;80;20932;-75